createdAt,value
2019-01-29T00:01:53.145Z,29.30
2019-01-29T00:04:23.470Z,28.77
2019-01-29T00:06:53.268Z,29.03
2019-01-29T00:09:23.786Z,29.33
2019-01-29T00:11:53.671Z,30.03
2019-01-29T00:14:23.449Z,28.40
2019-01-29T00:16:53.382Z,29.03
2019-01-29T00:19:23.206Z,29.97
2019-01-29T00:21:53.045Z,28.73
2019-01-29T00:24:22.860Z,30.67
2019-01-29T00:26:52.561Z,31.70
2019-01-29T00:29:22.367Z,29.40
2019-01-29T00:31:52.276Z,29.90
2019-01-29T00:34:22.092Z,30.30
2019-01-29T00:36:51.871Z,29.73
2019-01-29T00:39:21.752Z,29.97
2019-01-29T00:41:51.547Z,30.50
2019-01-29T00:44:21.405Z,31.10
2019-01-29T00:46:51.142Z,30.40
2019-01-29T00:49:22.731Z,30.67
2019-01-29T00:51:52.602Z,30.53
2019-01-29T00:54:22.393Z,30.40
2019-01-29T00:56:52.191Z,30.07
2019-01-29T00:59:22.000Z,30.33
2019-01-29T01:01:51.767Z,30.53
2019-01-29T01:04:21.479Z,29.53
2019-01-29T01:06:51.370Z,30.43
2019-01-29T01:09:21.551Z,30.37
2019-01-29T01:11:51.273Z,30.30
2019-01-29T01:14:21.105Z,31.20
2019-01-29T01:16:50.897Z,30.57
2019-01-29T01:19:20.661Z,30.77
2019-01-29T01:21:50.508Z,29.73
2019-01-29T01:24:20.322Z,30.50
2019-01-29T01:26:50.183Z,30.70
2019-01-29T01:29:20.290Z,29.33
2019-01-29T01:31:50.238Z,30.33
2019-01-29T01:34:19.970Z,31.43
2019-01-29T01:36:50.768Z,31.03
2019-01-29T01:39:20.583Z,30.10
2019-01-29T01:41:50.327Z,29.43
2019-01-29T01:44:20.406Z,30.07
2019-01-29T01:46:50.399Z,30.20
2019-01-29T01:49:20.356Z,31.60
2019-01-29T01:51:50.090Z,29.80
2019-01-29T01:54:20.072Z,30.53
2019-01-29T01:56:50.383Z,29.73
2019-01-29T01:59:20.248Z,30.03
2019-01-29T02:01:50.469Z,27.73
2019-01-29T02:04:20.246Z,27.67
2019-01-29T02:06:50.130Z,27.77
2019-01-29T02:09:19.913Z,28.33
2019-01-29T02:11:49.700Z,27.27
2019-01-29T02:14:19.532Z,27.27
2019-01-29T02:16:49.349Z,29.10
2019-01-29T02:19:19.054Z,30.13
2019-01-29T02:21:48.903Z,29.80
2019-01-29T02:24:18.739Z,28.67
2019-01-29T02:26:48.579Z,29.47
2019-01-29T02:29:18.319Z,31.03
2019-01-29T02:31:48.042Z,32.17
2019-01-29T02:34:17.870Z,31.93
2019-01-29T02:36:47.731Z,32.40
2019-01-29T02:39:17.505Z,30.67
2019-01-29T02:41:47.369Z,31.67
2019-01-29T02:44:17.185Z,31.70
2019-01-29T02:46:47.091Z,31.47
2019-01-29T02:49:16.927Z,32.33
2019-01-29T02:51:46.722Z,29.70
2019-01-29T02:54:16.525Z,26.90
2019-01-29T02:56:46.318Z,27.90
2019-01-29T02:59:16.082Z,31.60
2019-01-29T03:01:45.924Z,31.67
2019-01-29T03:04:15.728Z,32.47
2019-01-29T03:06:45.518Z,29.60
2019-01-29T03:09:16.931Z,30.37
2019-01-29T03:11:46.735Z,30.33
2019-01-29T03:14:16.774Z,30.93
2019-01-29T03:16:46.570Z,31.77
2019-01-29T03:19:16.315Z,31.20
2019-01-29T03:21:46.129Z,30.80
2019-01-29T03:24:15.952Z,30.73
2019-01-29T03:26:45.729Z,32.03
2019-01-29T03:29:15.727Z,31.63
2019-01-29T03:31:45.710Z,31.33
2019-01-29T03:34:15.535Z,32.57
2019-01-29T03:36:45.707Z,31.37
2019-01-29T03:39:15.539Z,32.17
2019-01-29T03:41:45.382Z,31.10
2019-01-29T03:44:15.247Z,31.80
2019-01-29T03:46:45.062Z,31.67
2019-01-29T03:49:14.999Z,32.83
2019-01-29T03:51:44.988Z,32.70
2019-01-29T03:54:14.886Z,34.20
2019-01-29T03:56:44.725Z,32.73
2019-01-29T03:59:14.517Z,33.70
2019-01-29T04:01:44.373Z,32.80
2019-01-29T04:04:14.567Z,33.23
2019-01-29T04:06:44.383Z,32.80
2019-01-29T04:09:14.364Z,32.93
2019-01-29T04:11:44.457Z,31.70
2019-01-29T04:14:14.313Z,33.60
2019-01-29T04:16:44.664Z,33.03
2019-01-29T04:19:14.889Z,32.67
2019-01-29T04:21:44.794Z,32.40
2019-01-29T04:24:14.536Z,32.63
2019-01-29T04:26:44.499Z,32.50
2019-01-29T04:29:14.482Z,33.47
2019-01-29T04:31:44.450Z,32.40
2019-01-29T04:34:14.187Z,31.47
2019-01-29T04:36:44.064Z,31.67
2019-01-29T04:39:13.871Z,31.33
2019-01-29T04:41:43.619Z,30.93
2019-01-29T04:44:13.482Z,31.80
2019-01-29T04:46:43.259Z,31.27
2019-01-29T04:49:13.232Z,30.93
2019-01-29T04:51:43.117Z,31.30
2019-01-29T04:54:13.188Z,29.73
2019-01-29T04:56:42.993Z,31.20
2019-01-29T04:59:12.779Z,32.07
2019-01-29T05:01:42.566Z,30.67
2019-01-29T05:04:12.419Z,30.67
2019-01-29T05:06:42.221Z,30.47
2019-01-29T05:09:12.025Z,30.40
2019-01-29T05:11:41.900Z,30.53
2019-01-29T05:14:11.605Z,30.70
2019-01-29T05:16:41.450Z,29.00
2019-01-29T05:19:11.267Z,29.57
2019-01-29T05:21:41.069Z,28.93
2019-01-29T05:24:10.927Z,29.97
2019-01-29T05:26:40.719Z,29.37
2019-01-29T05:29:10.533Z,29.73
2019-01-29T05:31:40.393Z,30.60
2019-01-29T05:34:10.124Z,29.43
2019-01-29T05:36:39.922Z,36.63
2019-01-29T05:39:09.776Z,29.63
2019-01-29T05:41:39.580Z,29.73
2019-01-29T05:44:09.472Z,28.50
2019-01-29T05:46:39.270Z,29.37
2019-01-29T05:49:09.047Z,29.50
2019-01-29T05:51:40.636Z,30.10
2019-01-29T05:54:16.484Z,29.40
2019-01-29T05:56:42.748Z,29.43
2019-01-29T05:59:13.152Z,30.90
2019-01-29T06:01:42.996Z,31.67
2019-01-29T06:04:12.828Z,29.00
2019-01-29T06:06:42.656Z,29.53
2019-01-29T06:09:12.465Z,31.20
2019-01-29T06:11:43.550Z,30.83
2019-01-29T06:14:13.365Z,29.63
2019-01-29T06:16:43.097Z,31.30
2019-01-29T06:19:12.846Z,29.33
2019-01-29T06:21:42.685Z,28.23
2019-01-29T06:24:12.501Z,30.17
2019-01-29T06:26:42.251Z,30.00
2019-01-29T06:29:11.995Z,28.97
2019-01-29T06:31:41.791Z,29.70
2019-01-29T06:34:11.649Z,29.63
2019-01-29T06:36:41.532Z,29.57
2019-01-29T06:39:11.332Z,29.83
2019-01-29T06:41:41.115Z,30.57
2019-01-29T06:44:10.914Z,29.17
2019-01-29T06:46:40.711Z,29.83
2019-01-29T06:49:10.599Z,77.23
2019-01-29T06:51:40.337Z,41.63
2019-01-29T06:54:10.149Z,33.27
2019-01-29T06:56:39.873Z,31.47
2019-01-29T06:59:09.621Z,28.70
2019-01-29T07:01:39.534Z,28.47
2019-01-29T07:04:09.369Z,26.37
2019-01-29T07:06:39.187Z,27.20
2019-01-29T07:09:09.430Z,26.53
2019-01-29T07:11:39.183Z,27.10
2019-01-29T07:14:09.091Z,25.97
2019-01-29T07:16:40.488Z,29.33
2019-01-29T07:19:11.869Z,29.10
2019-01-29T07:21:42.583Z,28.07
2019-01-29T07:24:12.529Z,27.03
2019-01-29T07:26:42.359Z,28.97
2019-01-29T07:29:12.182Z,30.83
2019-01-29T07:31:41.951Z,31.77
2019-01-29T07:34:11.844Z,30.60
2019-01-29T07:36:41.565Z,30.10
2019-01-29T07:39:11.691Z,26.73
2019-01-29T07:41:41.440Z,24.83
2019-01-29T07:44:11.295Z,25.20
2019-01-29T07:46:41.108Z,24.93
2019-01-29T07:49:11.003Z,24.33
2019-01-29T07:51:40.812Z,25.37
2019-01-29T07:54:10.646Z,24.87
2019-01-29T07:56:40.746Z,21.87
2019-01-29T07:59:10.570Z,52.80
2019-01-29T08:01:40.408Z,22.73
2019-01-29T08:04:10.349Z,20.30
2019-01-29T08:06:40.128Z,20.73
2019-01-29T08:09:09.999Z,22.47
2019-01-29T08:11:39.810Z,25.13
2019-01-29T08:14:09.637Z,22.20
2019-01-29T08:16:39.344Z,22.47
2019-01-29T08:19:09.157Z,20.83
2019-01-29T08:21:39.032Z,20.37
2019-01-29T08:24:08.765Z,21.70
2019-01-29T08:26:38.657Z,21.40
2019-01-29T08:29:08.715Z,21.97
2019-01-29T08:31:38.504Z,24.77
2019-01-29T08:34:08.306Z,25.53
2019-01-29T08:36:38.045Z,27.80
2019-01-29T08:39:08.601Z,47.33
2019-01-29T08:41:38.406Z,20.87
2019-01-29T08:44:09.047Z,19.47
2019-01-29T08:46:39.013Z,19.50
2019-01-29T08:49:08.700Z,21.63
2019-01-29T08:51:38.611Z,22.27
2019-01-29T08:54:08.349Z,22.57
2019-01-29T08:56:38.150Z,21.47
2019-01-29T08:59:07.918Z,21.00
2019-01-29T09:01:37.735Z,22.70
2019-01-29T09:04:07.660Z,20.17
2019-01-29T09:06:37.545Z,20.47
2019-01-29T09:09:09.122Z,19.07
2019-01-29T09:11:39.103Z,19.37
2019-01-29T09:14:08.858Z,17.63
2019-01-29T09:16:38.908Z,18.53
2019-01-29T09:19:08.932Z,18.10
2019-01-29T09:21:39.592Z,16.70
2019-01-29T09:24:09.648Z,16.00
2019-01-29T09:26:39.398Z,15.77
2019-01-29T09:29:17.457Z,15.33
2019-01-29T09:31:41.233Z,12.83
2019-01-29T09:34:11.052Z,12.20
2019-01-29T09:36:40.848Z,10.87
2019-01-29T09:39:13.834Z,10.07
2019-01-29T09:41:43.619Z,12.63
2019-01-29T09:44:13.410Z,9.73
2019-01-29T09:46:43.229Z,9.57
2019-01-29T09:49:13.220Z,4.57
2019-01-29T09:51:42.994Z,3.43
2019-01-29T09:54:14.654Z,4.00
2019-01-29T09:56:44.728Z,3.00
2019-01-29T09:59:14.547Z,2.70
2019-01-29T10:01:44.361Z,2.20
2019-01-29T10:04:14.088Z,1.00
2019-01-29T10:06:43.890Z,0.50
2019-01-29T10:09:13.672Z,0.40
2019-01-29T10:11:43.638Z,0.17
2019-01-29T10:14:14.070Z,0.20
2019-01-29T10:16:43.867Z,0.30
2019-01-29T10:19:13.800Z,1.00
2019-01-29T10:21:43.670Z,0.50
2019-01-29T10:24:13.689Z,0.30
2019-01-29T10:26:44.431Z,0.50
2019-01-29T10:29:14.522Z,0.30
2019-01-29T10:31:44.470Z,0.90
2019-01-29T10:34:16.839Z,0.53
2019-01-29T10:36:46.725Z,0.30
2019-01-29T10:39:16.710Z,0.20
2019-01-29T10:41:46.574Z,0.30
2019-01-29T10:44:16.287Z,0.50
2019-01-29T10:46:46.333Z,0.20
2019-01-29T10:49:16.235Z,0.30
2019-01-29T10:51:46.162Z,0.70
2019-01-29T10:54:15.917Z,0.50
2019-01-29T10:56:47.275Z,0.77
2019-01-29T10:59:17.039Z,0.73
2019-01-29T11:01:46.921Z,0.50
2019-01-29T11:04:16.752Z,0.40
2019-01-29T11:06:46.680Z,1.33
2019-01-29T11:09:25.144Z,0.30
2019-01-29T11:11:47.865Z,0.37
2019-01-29T11:14:17.687Z,0.87
2019-01-29T11:16:47.684Z,1.73
2019-01-29T11:19:17.526Z,2.87
2019-01-29T11:21:47.346Z,0.20
2019-01-29T11:24:17.184Z,0.10
2019-01-29T11:26:46.993Z,0.40
2019-01-29T11:29:16.776Z,0.57
2019-01-29T11:31:46.610Z,1.53
2019-01-29T11:34:16.644Z,0.20
2019-01-29T11:36:47.659Z,0.47
2019-01-29T11:39:17.478Z,1.00
2019-01-29T11:41:47.212Z,0.40
2019-01-29T11:44:16.938Z,0.30
2019-01-29T11:46:46.861Z,0.50
2019-01-29T11:49:16.607Z,0.40
2019-01-29T11:51:46.661Z,0.30
2019-01-29T11:54:16.923Z,0.77
2019-01-29T11:56:47.662Z,0.40
2019-01-29T11:59:17.349Z,0.30
2019-01-29T12:01:47.153Z,0.50
2019-01-29T12:04:16.885Z,6.23
2019-01-29T12:06:46.828Z,1.57
2019-01-29T12:09:16.565Z,1.47
2019-01-29T12:11:46.330Z,1.03
2019-01-29T12:14:15.989Z,0.23
2019-01-29T12:16:45.830Z,0.40
2019-01-29T12:19:15.636Z,0.83
2019-01-29T12:21:45.364Z,1.33
2019-01-29T12:24:15.277Z,0.40
2019-01-29T12:26:45.069Z,0.40
2019-01-29T12:29:14.791Z,0.30
2019-01-29T12:31:44.577Z,0.30
2019-01-29T12:34:14.316Z,0.30
2019-01-29T12:36:44.035Z,0.67
2019-01-29T12:39:13.982Z,0.53
2019-01-29T12:41:43.654Z,0.20
2019-01-29T12:44:13.459Z,0.20
2019-01-29T12:46:44.150Z,0.47
2019-01-29T12:49:13.893Z,0.40
2019-01-29T12:51:45.234Z,0.50
2019-01-29T12:54:15.066Z,0.30
2019-01-29T12:56:44.848Z,0.40
2019-01-29T12:59:15.178Z,0.30
2019-01-29T13:01:44.940Z,0.70
2019-01-29T13:04:14.803Z,1.00
2019-01-29T13:06:44.571Z,0.57
2019-01-29T13:09:14.291Z,0.83
2019-01-29T13:11:44.071Z,0.30
2019-01-29T13:14:13.844Z,0.20
2019-01-29T13:16:44.359Z,0.20
2019-01-29T13:19:14.206Z,0.30
2019-01-29T13:21:44.030Z,0.80
2019-01-29T13:24:13.889Z,0.40
2019-01-29T13:26:43.859Z,0.33
2019-01-29T13:29:13.857Z,0.40
2019-01-29T13:31:44.955Z,0.43
2019-01-29T13:34:14.843Z,0.40
2019-01-29T13:36:47.659Z,0.30
2019-01-29T13:39:17.391Z,0.50
2019-01-29T13:41:47.149Z,0.40
2019-01-29T13:44:16.889Z,0.40
2019-01-29T13:46:46.864Z,0.60
2019-01-29T13:49:16.701Z,0.23
2019-01-29T13:51:47.107Z,0.40
2019-01-29T13:54:16.882Z,0.23
2019-01-29T13:56:48.256Z,0.20
2019-01-29T13:59:18.235Z,0.20
2019-01-29T14:01:48.040Z,0.30
2019-01-29T14:04:17.918Z,0.20
2019-01-29T14:06:47.727Z,0.20
2019-01-29T14:09:17.591Z,0.30
2019-01-29T14:11:47.449Z,0.20
2019-01-29T14:14:19.099Z,0.20
2019-01-29T14:16:50.881Z,0.20
2019-01-29T14:19:20.632Z,0.30
2019-01-29T14:21:50.467Z,0.30
2019-01-29T14:24:20.271Z,0.30
2019-01-29T14:26:50.071Z,0.30
2019-01-29T14:29:19.790Z,0.30
2019-01-29T14:31:49.615Z,0.40
2019-01-29T14:34:21.589Z,0.40
2019-01-29T14:36:51.271Z,0.40
2019-01-29T14:39:24.186Z,0.50
2019-01-29T14:41:54.215Z,5.33
2019-01-29T14:44:24.161Z,6.70
2019-01-29T14:46:53.986Z,11.93
2019-01-29T14:49:23.820Z,15.33
2019-01-29T14:51:53.807Z,7.77
2019-01-29T14:54:23.690Z,7.13
2019-01-29T14:56:56.956Z,6.80
2019-01-29T14:59:25.481Z,6.13
2019-01-29T15:01:55.484Z,6.40
2019-01-29T15:04:25.255Z,6.20
2019-01-29T15:06:55.074Z,7.00
2019-01-29T15:09:25.108Z,6.80
2019-01-29T15:11:54.960Z,8.00
2019-01-29T15:14:24.720Z,8.83
2019-01-29T15:16:56.225Z,9.67
2019-01-29T15:19:26.249Z,9.37
2019-01-29T15:21:56.110Z,9.87
2019-01-29T15:24:26.134Z,9.80
2019-01-29T15:26:56.009Z,10.10
2019-01-29T15:29:26.902Z,11.40
2019-01-29T15:31:56.739Z,11.37
2019-01-29T15:34:26.560Z,11.97
2019-01-29T15:36:56.358Z,10.70
2019-01-29T15:39:26.196Z,10.40
2019-01-29T15:41:55.989Z,13.47
2019-01-29T15:44:25.847Z,13.07
2019-01-29T15:46:56.242Z,9.60
2019-01-29T15:49:26.081Z,9.80
2019-01-29T15:51:56.788Z,9.20
2019-01-29T15:54:26.620Z,10.33
2019-01-29T15:56:56.426Z,11.07
2019-01-29T15:59:26.220Z,11.07
2019-01-29T16:01:55.970Z,10.47
2019-01-29T16:04:25.779Z,10.63
2019-01-29T16:06:55.591Z,8.83
2019-01-29T16:09:25.409Z,9.67
2019-01-29T16:11:55.518Z,9.70
2019-01-29T16:14:25.320Z,9.33
2019-01-29T16:16:55.105Z,9.30
2019-01-29T16:19:25.059Z,10.03
2019-01-29T16:21:54.824Z,9.47
2019-01-29T16:24:24.835Z,9.10
2019-01-29T16:26:54.555Z,9.37
2019-01-29T16:29:24.510Z,8.97
2019-01-29T16:31:54.439Z,8.73
2019-01-29T16:34:24.296Z,9.27
2019-01-29T16:36:54.119Z,9.60
2019-01-29T16:39:23.967Z,9.43
2019-01-29T16:41:53.841Z,9.20
2019-01-29T16:44:23.791Z,14.27
2019-01-29T16:46:55.312Z,10.50
2019-01-29T16:49:25.387Z,9.67
2019-01-29T16:51:56.174Z,10.33
2019-01-29T16:54:25.999Z,9.87
2019-01-29T16:56:55.977Z,10.67
2019-01-29T16:59:25.787Z,10.17
2019-01-29T17:01:55.869Z,8.90
2019-01-29T17:04:25.675Z,10.20
2019-01-29T17:06:55.500Z,9.43
2019-01-29T17:09:25.517Z,10.77
2019-01-29T17:11:55.268Z,11.00
2019-01-29T17:14:25.049Z,10.43
2019-01-29T17:16:56.547Z,55.00
2019-01-29T17:19:26.365Z,15.07
2019-01-29T17:21:56.484Z,14.03
2019-01-29T17:24:27.788Z,14.27
2019-01-29T17:26:57.590Z,14.30
2019-01-29T17:29:27.469Z,14.50
2019-01-29T17:31:58.955Z,14.30
2019-01-29T17:34:28.763Z,15.53
2019-01-29T17:36:58.896Z,12.70
2019-01-29T17:39:28.746Z,14.23
2019-01-29T17:41:58.514Z,17.17
2019-01-29T17:44:28.334Z,15.87
2019-01-29T17:46:59.222Z,16.03
2019-01-29T17:49:29.078Z,15.43
2019-01-29T17:51:58.819Z,15.30
2019-01-29T17:54:28.675Z,15.53
2019-01-29T17:56:58.469Z,15.40
2019-01-29T17:59:28.319Z,18.63
2019-01-29T18:01:58.139Z,31.33
2019-01-29T18:04:28.720Z,21.43
2019-01-29T18:06:59.213Z,14.43
2019-01-29T18:09:29.091Z,13.70
2019-01-29T18:11:59.243Z,13.67
2019-01-29T18:14:29.094Z,12.83
2019-01-29T18:17:00.060Z,13.80
2019-01-29T18:19:29.911Z,14.00
2019-01-29T18:21:59.730Z,13.60
2019-01-29T18:24:29.713Z,13.17
2019-01-29T18:26:59.676Z,14.80
2019-01-29T18:29:30.301Z,14.33
2019-01-29T18:32:00.198Z,14.77
2019-01-29T18:34:30.007Z,14.63
2019-01-29T18:36:59.785Z,15.13
2019-01-29T18:39:29.838Z,14.90
2019-01-29T18:41:59.639Z,15.47
2019-01-29T18:44:29.643Z,15.47
2019-01-29T18:46:59.495Z,16.57
2019-01-29T18:49:29.383Z,15.40
2019-01-29T18:52:00.430Z,17.87
2019-01-29T18:54:31.336Z,17.03
2019-01-29T18:57:01.177Z,69.13
2019-01-29T18:59:32.058Z,18.93
2019-01-29T19:02:01.949Z,17.17
2019-01-29T19:04:31.818Z,18.23
2019-01-29T19:07:02.610Z,17.60
2019-01-29T19:09:32.444Z,16.93
2019-01-29T19:12:02.184Z,17.50
2019-01-29T19:14:32.029Z,17.60
2019-01-29T19:17:01.856Z,16.17
2019-01-29T19:19:31.696Z,18.07
2019-01-29T19:22:01.605Z,17.13
2019-01-29T19:24:31.443Z,20.02
2019-01-29T19:27:01.444Z,18.00
2019-01-29T19:29:31.263Z,17.43
2019-01-29T19:32:01.145Z,17.57
2019-01-29T19:34:30.985Z,16.97
2019-01-29T19:37:03.092Z,17.37
2019-01-29T19:39:32.363Z,17.77
2019-01-29T19:42:02.604Z,18.03
2019-01-29T19:44:32.425Z,17.50
2019-01-29T19:47:03.465Z,19.50
2019-01-29T19:49:34.364Z,18.60
2019-01-29T19:52:04.304Z,17.97
2019-01-29T19:54:34.544Z,18.47
2019-01-29T19:57:04.353Z,19.70
2019-01-29T19:59:36.763Z,18.80
2019-01-29T20:02:06.740Z,19.30
2019-01-29T20:04:36.580Z,40.87
2019-01-29T20:07:07.023Z,35.20
2019-01-29T20:09:36.961Z,20.87
2019-01-29T20:12:09.673Z,18.10
2019-01-29T20:14:38.801Z,20.90
2019-01-29T20:17:11.399Z,21.07
2019-01-29T20:19:41.196Z,25.93
2019-01-29T20:22:11.642Z,22.00
2019-01-29T20:24:41.547Z,21.87
2019-01-29T20:27:11.320Z,21.73
2019-01-29T20:29:41.161Z,21.77
2019-01-29T20:32:11.101Z,21.40
2019-01-29T20:34:40.918Z,22.37
2019-01-29T20:37:10.759Z,22.63
2019-01-29T20:39:40.641Z,22.73
2019-01-29T20:42:10.761Z,21.90
2019-01-29T20:44:40.530Z,21.87
2019-01-29T20:47:10.440Z,27.90
2019-01-29T20:49:43.929Z,22.00
2019-01-29T20:52:13.742Z,22.40
2019-01-29T20:54:43.557Z,23.47
2019-01-29T20:57:13.363Z,22.53
2019-01-29T20:59:43.169Z,22.70
2019-01-29T21:02:13.021Z,21.97
2019-01-29T21:04:42.798Z,20.83
2019-01-29T21:07:12.621Z,23.10
2019-01-29T21:09:42.489Z,21.87
2019-01-29T21:12:12.320Z,22.10
2019-01-29T21:14:42.123Z,22.10
2019-01-29T21:17:12.339Z,21.83
2019-01-29T21:19:43.619Z,20.27
2019-01-29T21:22:13.420Z,21.43
2019-01-29T21:24:43.241Z,22.73
2019-01-29T21:27:13.095Z,22.97
2019-01-29T21:29:42.881Z,21.43
2019-01-29T21:32:12.698Z,21.60
2019-01-29T21:34:42.481Z,23.57
2019-01-29T21:37:12.501Z,22.73
2019-01-29T21:39:42.359Z,21.37
2019-01-29T21:42:12.339Z,21.53
2019-01-29T21:44:42.159Z,21.67
2019-01-29T21:47:12.001Z,21.20
2019-01-29T21:49:41.850Z,22.30
2019-01-29T21:52:11.701Z,21.77
2019-01-29T21:54:41.525Z,22.23
2019-01-29T21:57:11.362Z,22.70
2019-01-29T21:59:41.160Z,23.70
2019-01-29T22:02:10.999Z,23.43
2019-01-29T22:04:40.762Z,22.27
2019-01-29T22:07:10.579Z,21.93
2019-01-29T22:09:41.346Z,21.73
2019-01-29T22:12:11.043Z,21.63
2019-01-29T22:14:40.860Z,21.10
2019-01-29T22:17:10.684Z,20.53
2019-01-29T22:19:40.341Z,21.33
2019-01-29T22:22:10.141Z,20.10
2019-01-29T22:24:40.021Z,19.77
2019-01-29T22:27:09.824Z,19.67
2019-01-29T22:29:39.621Z,19.13
2019-01-29T22:32:09.441Z,18.63
2019-01-29T22:34:39.201Z,18.57
2019-01-29T22:37:09.019Z,19.57
2019-01-29T22:39:38.800Z,19.33
2019-01-29T22:42:08.621Z,19.50
2019-01-29T22:44:38.421Z,19.17
2019-01-29T22:47:08.286Z,18.77
2019-01-29T22:49:38.757Z,18.57
2019-01-29T22:52:08.481Z,19.30
2019-01-29T22:54:38.580Z,18.30
2019-01-29T22:57:08.401Z,17.53
2019-01-29T22:59:38.213Z,18.33
2019-01-29T23:02:08.181Z,17.57
2019-01-29T23:04:37.959Z,17.80
2019-01-29T23:07:07.802Z,17.67
2019-01-29T23:09:37.639Z,17.50
2019-01-29T23:12:07.422Z,17.40
2019-01-29T23:14:37.210Z,18.17
2019-01-29T23:17:07.061Z,17.33
2019-01-29T23:19:36.843Z,17.03
2019-01-29T23:22:06.743Z,17.63
2019-01-29T23:24:36.484Z,18.43
2019-01-29T23:27:06.299Z,17.73
2019-01-29T23:29:43.250Z,18.73
2019-01-29T23:32:07.422Z,19.03
2019-01-29T23:34:37.203Z,18.00
2019-01-29T23:37:06.982Z,18.33
2019-01-29T23:39:36.831Z,18.00
2019-01-29T23:42:06.627Z,18.57
2019-01-29T23:44:36.872Z,17.70
2019-01-29T23:47:06.950Z,18.73
2019-01-29T23:49:36.666Z,19.00
2019-01-29T23:52:06.648Z,18.40
2019-01-29T23:54:36.468Z,19.00
2019-01-29T23:57:06.288Z,17.87
2019-01-29T23:59:36.089Z,18.30
